Overview Statistics Trail Chart Weather Telemetry Raw packets
 

This is the latest recevied weather packets stored in our database for station/object N0QWM. If no packets are shown the sender has not sent any weather packets the latest 10 day(s).

<< 79 80 81 82 83 84 85 >>
Time Temp. Humidity Pressure Rain* Wind** Luminosity Snow
1788120980 33.89° C 57% 1023.2 hPa 0 mm - 151 W/m² -
1788120675 34.44° C 57% 1023.3 hPa 0 mm - 452 W/m² -
1788120371 33.33° C 57% 1023.2 hPa 0 mm - 514 W/m² -
1788120070 32.22° C 61% 1023.4 hPa 0 mm - 513 W/m² -
1788119766 32.78° C 59% 1023.4 hPa 0 mm - 104 W/m² -
1788119463 34.44° C 57% 1023.3 hPa 0 mm - 120 W/m² -
1788119163 33.89° C 60% 1023.5 hPa 0 mm - 565 W/m² -
1788118857 33.33° C 60% 1023.5 hPa 0 mm - 537 W/m² -
1788118557 33.33° C 59% 1023.8 hPa 0 mm - 136 W/m² -
1788118252 32.22° C 62% 1023.8 hPa 0 mm - 680 W/m² -
1788117948 32.78° C 61% 1023.7 hPa 0 mm - 111 W/m² -
1788117647 32.22° C 63% 1024 hPa 0 mm - 196 W/m² -
1788117343 32.78° C 62% 1023.8 hPa 0 mm - 122 W/m² -
1788117038 32.78° C 60% 1023.7 hPa 0 mm - 140 W/m² -
1788116733 33.89° C 59% 1023.9 hPa 0 mm - 157 W/m² -
1788116428 33.89° C 59% 1023.8 hPa 0 mm - 500 W/m² -
1788116122 33.89° C 58% 1023.9 hPa 0 mm - 692 W/m² -
1788115818 32.78° C 61% 1023.9 hPa 0 mm - 668 W/m² -
1788115516 33.33° C 61% 1024.2 hPa 0 mm - 654 W/m² -
1788115206 33.33° C 60% 1024.2 hPa 0 mm - 677 W/m² -
1788114906 33.33° C 60% 1024.3 hPa 0 mm - 691 W/m² -
1788114601 33.33° C 60% 1024.2 hPa 0 mm - 654 W/m² -
1788114296 32.22° C 63% 1024.3 hPa 0 mm - 655 W/m² -
1788113988 31.67° C 64% 1024.6 hPa 0 mm - 616 W/m² -
1788113683 32.22° C 65% 1024.7 hPa 0 mm - 115 W/m² -

* Rain latest hour (hover to see other rain measurements)
** Current wind speed in m/s (hover to see current wind gust speed)